Briefing drone pour Tournon-sur-rhone

Rechercher une autre localisation

Conditions de vol :


Nous sommes le : Mardi 25 janvier 2022
Il est 10:52 UTC (11:52 LT)

Lever de soleil : 06:41 UTC (07:41 LT)
Coucher de soleil : 17:04 UTC (18:04 LT)

Météo

L'essentiel des conditions de vol

VIGILANCE MÉTÉO FRANCE - Ardèche (07)
Pas de vigilances particulieres
CARTES DES FRONTS
METAR de LFLU
LFLU 251030Z AUTO 00000KT 5000 BR NSC 02/M00 Q1034

Date d'émission: 25/01/2022
Heure d'émission: 10:30 UTC
Vent: Calme
Visibilité horizontale: 5000 m
Plafond : Pas de nuages significatifs (NSC)
Température: 2 °C
Point de rosée: 0 °C
Humidité: 87%
Pression (QNH): 1034 hPa
Conditions: Brume
Prévision 24h pour Valence (10 km)
Vent : 10° pour 3 KT (10 km/h)
Temperature Maxi: 0 °C
Temperature Min: 0 °C
Humidité : 85%
Condition : Ciel dégagé



Warning: count(): Parameter must be an array or an object that implements Countable in /homepages/6/d509196549/htdocs/droneoxygene/briefing.php on line 743
WEBCAM POUR TOURNON-SUR-RHONE

Réglementation

Voler en sécurité

CARTES AERONAUTIQUE 1/500.000
CARTES VAC (LFLU)
SUP AIP




Chargement des AIP...
NOTAM (TOURNON-SUR-RHONE + Terrain à proximité / FIR )




Chargement des NOTAMS...
CONTACT PREFECTURE 07


Avertissement : Les données mises à disposition sont indicatives. Oxygène Drone ne pourra être tenu responsable de dégâts causés aux biens et aux personnes.